createdAt,value
2023-01-25T00:01:52.634Z,15.43
2023-01-25T00:06:45.056Z,15.63
2023-01-25T00:09:11.610Z,16.40
2023-01-25T00:11:37.905Z,14.30
2023-01-25T00:14:04.389Z,15.70
2023-01-25T00:16:30.773Z,15.93
2023-01-25T00:18:57.055Z,16.90
2023-01-25T00:21:26.172Z,16.20
2023-01-25T00:23:52.514Z,16.02
2023-01-25T00:26:19.039Z,16.42
2023-01-25T00:28:52.056Z,16.70
2023-01-25T00:31:25.820Z,15.88
2023-01-25T00:34:01.776Z,15.68
2023-01-25T00:36:40.215Z,17.00
2023-01-25T00:39:06.928Z,15.70
2023-01-25T00:41:33.172Z,16.20
2023-01-25T00:44:00.069Z,15.93
2023-01-25T00:48:55.520Z,16.50
2023-01-25T00:51:22.301Z,15.35
2023-01-25T00:56:14.730Z,15.27
2023-01-25T00:58:41.267Z,15.10
2023-01-25T01:01:07.663Z,15.02
2023-01-25T01:03:33.973Z,16.08
2023-01-25T01:06:05.033Z,15.40
2023-01-25T01:08:33.432Z,16.30
2023-01-25T01:11:00.886Z,15.63
2023-01-25T01:13:28.217Z,15.98
2023-01-25T01:15:54.738Z,15.15
2023-01-25T01:18:21.076Z,17.50
2023-01-25T01:20:50.910Z,16.92
2023-01-25T01:23:17.145Z,17.35
2023-01-25T01:25:43.427Z,16.70
2023-01-25T01:28:09.675Z,17.98
2023-01-25T01:30:36.137Z,17.38
2023-01-25T01:33:02.353Z,17.02
2023-01-25T01:35:29.093Z,15.88
2023-01-25T01:37:55.388Z,17.42
2023-01-25T01:40:21.967Z,16.40
2023-01-25T01:43:05.386Z,16.98
2023-01-25T01:45:43.893Z,16.48
2023-01-25T01:48:15.605Z,16.90
2023-01-25T01:50:42.371Z,16.60
2023-01-25T01:55:35.563Z,16.70
2023-01-25T01:58:03.401Z,17.27
2023-01-25T02:00:32.530Z,16.35
2023-01-25T02:02:58.925Z,16.60
2023-01-25T02:05:42.262Z,16.95
2023-01-25T02:08:10.489Z,17.25
2023-01-25T02:10:36.800Z,17.75
2023-01-25T02:13:03.030Z,18.63
2023-01-25T02:15:33.322Z,16.85
2023-01-25T02:17:59.550Z,16.77
2023-01-25T02:20:35.433Z,17.48
2023-01-25T02:23:01.640Z,16.40
2023-01-25T02:25:28.933Z,16.58
2023-01-25T02:27:57.426Z,16.83
2023-01-25T02:30:23.682Z,17.75
2023-01-25T02:32:49.954Z,16.55
2023-01-25T02:35:23.309Z,17.63
2023-01-25T02:37:50.235Z,16.88
2023-01-25T02:40:19.623Z,16.30
2023-01-25T02:42:46.448Z,18.50
2023-01-25T02:47:39.036Z,16.58
2023-01-25T02:50:05.562Z,16.80
2023-01-25T02:52:31.849Z,17.35
2023-01-25T02:54:58.076Z,18.25
2023-01-25T02:57:24.373Z,17.98
2023-01-25T02:59:50.580Z,16.98
2023-01-25T03:02:16.839Z,17.73
2023-01-25T03:04:43.087Z,16.85
2023-01-25T03:07:09.375Z,17.75
2023-01-25T03:09:35.590Z,16.35
2023-01-25T03:12:01.807Z,18.13
2023-01-25T03:14:28.036Z,17.58
2023-01-25T03:16:54.288Z,17.80
2023-01-25T03:19:20.563Z,17.88
2023-01-25T03:21:46.863Z,17.85
2023-01-25T03:24:13.155Z,18.70
2023-01-25T03:26:58.211Z,16.55
2023-01-25T03:29:24.461Z,16.95
2023-01-25T03:31:51.006Z,16.67
2023-01-25T03:34:17.371Z,16.90
2023-01-25T03:36:43.634Z,15.75
2023-01-25T03:39:10.120Z,16.95
2023-01-25T03:41:36.506Z,16.45
2023-01-25T03:44:02.728Z,15.85
2023-01-25T03:46:28.962Z,16.15
2023-01-25T03:48:55.219Z,17.40
2023-01-25T03:51:21.494Z,16.55
2023-01-25T03:53:47.730Z,16.65
2023-01-25T03:56:20.175Z,17.73
2023-01-25T03:58:46.730Z,16.45
2023-01-25T04:01:13.430Z,17.25
2023-01-25T04:03:39.779Z,16.58
2023-01-25T04:06:06.422Z,17.08
2023-01-25T04:08:32.777Z,15.90
2023-01-25T04:11:04.062Z,16.77
2023-01-25T04:13:30.465Z,16.88
2023-01-25T04:15:56.750Z,16.27
2023-01-25T04:18:22.993Z,16.65
2023-01-25T04:20:53.658Z,15.45
2023-01-25T04:23:19.883Z,16.63
2023-01-25T04:25:54.987Z,16.33
2023-01-25T04:28:21.237Z,15.25
2023-01-25T04:30:47.496Z,15.30
2023-01-25T04:33:13.947Z,15.95
2023-01-25T04:35:40.396Z,15.93
2023-01-25T04:38:06.783Z,16.73
2023-01-25T04:40:33.072Z,15.13
2023-01-25T04:42:59.384Z,14.85
2023-01-25T04:45:25.687Z,14.88
2023-01-25T04:47:58.725Z,15.98
2023-01-25T04:50:25.393Z,14.70
2023-01-25T04:52:51.977Z,15.63
2023-01-25T04:55:18.221Z,15.05
2023-01-25T04:57:45.259Z,15.02
2023-01-25T05:00:12.072Z,14.18
2023-01-25T05:05:06.232Z,14.10
2023-01-25T05:07:32.541Z,13.27
2023-01-25T05:09:59.521Z,13.52
2023-01-25T05:12:25.751Z,12.35
2023-01-25T05:14:52.090Z,10.80
2023-01-25T05:17:18.358Z,10.18
2023-01-25T05:19:44.580Z,11.50
2023-01-25T05:22:13.421Z,12.70
2023-01-25T05:24:41.653Z,11.75
2023-01-25T05:27:09.468Z,11.18
2023-01-25T05:29:37.030Z,11.85
2023-01-25T05:32:08.017Z,11.13
2023-01-25T05:34:34.820Z,10.85
2023-01-25T05:39:27.301Z,10.75
2023-01-25T05:41:53.529Z,9.65
2023-01-25T05:44:19.962Z,11.60
2023-01-25T05:46:46.484Z,11.85
2023-01-25T05:49:12.831Z,10.57
2023-01-25T05:51:39.472Z,11.50
2023-01-25T05:54:06.024Z,11.45
2023-01-25T05:56:32.899Z,11.68
2023-01-25T06:01:25.455Z,9.57
2023-01-25T06:03:52.048Z,10.25
2023-01-25T06:06:18.490Z,11.10
2023-01-25T06:08:44.867Z,11.40
2023-01-25T06:11:13.624Z,11.48
2023-01-25T06:13:39.865Z,11.05
2023-01-25T06:16:06.368Z,10.60
2023-01-25T06:18:33.577Z,11.23
2023-01-25T06:21:00.351Z,10.57
2023-01-25T06:25:56.420Z,10.70
2023-01-25T06:28:22.655Z,11.23
2023-01-25T06:30:48.926Z,11.52
2023-01-25T06:33:15.240Z,13.73
2023-01-25T06:35:42.641Z,9.82
2023-01-25T06:38:09.118Z,11.32
2023-01-25T06:40:35.391Z,11.10
2023-01-25T06:43:08.200Z,11.90
2023-01-25T06:45:34.536Z,11.10
2023-01-25T06:48:00.826Z,11.50
2023-01-25T06:50:27.208Z,12.27
2023-01-25T06:52:54.086Z,10.63
2023-01-25T06:57:46.616Z,9.85
2023-01-25T07:00:13.217Z,10.73
2023-01-25T07:02:39.482Z,11.32
2023-01-25T07:05:06.016Z,12.13
2023-01-25T07:07:32.253Z,10.45
2023-01-25T07:10:00.431Z,11.45
2023-01-25T07:12:28.057Z,11.57
2023-01-25T07:14:54.300Z,12.23
2023-01-25T07:17:20.661Z,12.35
2023-01-25T07:19:47.170Z,11.77
2023-01-25T07:22:13.394Z,13.48
2023-01-25T07:24:39.648Z,11.73
2023-01-25T07:27:05.867Z,12.40
2023-01-25T07:29:32.266Z,13.13
2023-01-25T07:31:58.560Z,12.93
2023-01-25T07:34:25.054Z,12.88
2023-01-25T07:36:51.265Z,12.65
2023-01-25T07:39:17.556Z,13.45
2023-01-25T07:41:43.824Z,15.05
2023-01-25T07:44:10.231Z,13.80
2023-01-25T07:46:36.484Z,14.13
2023-01-25T07:49:02.822Z,14.82
2023-01-25T07:51:31.119Z,14.02
2023-01-25T07:53:59.609Z,13.23
2023-01-25T07:56:27.487Z,13.38
2023-01-25T07:58:55.054Z,13.32
2023-01-25T08:01:22.214Z,15.18
2023-01-25T08:03:49.292Z,13.90
2023-01-25T08:06:15.581Z,12.73
2023-01-25T08:08:46.285Z,13.35
2023-01-25T08:11:20.372Z,13.77
2023-01-25T08:13:47.342Z,14.82
2023-01-25T08:16:14.357Z,14.68
2023-01-25T08:21:06.848Z,14.90
2023-01-25T08:23:33.161Z,13.18
2023-01-25T08:26:03.208Z,14.57
2023-01-25T08:28:29.443Z,16.10
2023-01-25T08:30:57.525Z,16.42
2023-01-25T08:33:24.009Z,17.27
2023-01-25T08:35:59.268Z,16.58
2023-01-25T08:38:25.532Z,16.40
2023-01-25T08:40:51.955Z,15.82
2023-01-25T08:43:18.255Z,14.52
2023-01-25T08:45:44.848Z,15.60
2023-01-25T08:48:15.448Z,17.35
2023-01-25T08:50:47.974Z,16.58
2023-01-25T08:53:14.227Z,16.98
2023-01-25T08:55:42.869Z,15.43
2023-01-25T08:58:13.204Z,17.23
2023-01-25T09:00:40.175Z,15.75
2023-01-25T09:03:07.081Z,16.02
2023-01-25T09:05:33.878Z,16.25
2023-01-25T09:10:26.436Z,16.98
2023-01-25T09:12:52.760Z,16.60
2023-01-25T09:15:19.052Z,18.52
2023-01-25T09:17:45.293Z,17.90
2023-01-25T09:20:11.765Z,17.40
2023-01-25T09:22:39.004Z,16.95
2023-01-25T09:25:05.418Z,16.98
2023-01-25T09:27:31.677Z,17.45
2023-01-25T09:30:01.724Z,16.60
2023-01-25T09:32:29.450Z,16.33
2023-01-25T09:34:55.913Z,16.98
2023-01-25T09:37:22.186Z,13.70
2023-01-25T09:39:48.418Z,16.73
2023-01-25T09:42:33.468Z,14.23
2023-01-25T09:45:07.293Z,14.07
2023-01-25T09:47:57.711Z,13.52
2023-01-25T09:50:31.842Z,12.82
2023-01-25T09:53:16.823Z,14.35
2023-01-25T09:55:44.082Z,13.80
2023-01-25T09:58:15.650Z,13.63
2023-01-25T10:00:47.932Z,12.23
2023-01-25T10:03:22.964Z,12.68
2023-01-25T10:05:50.571Z,13.43
2023-01-25T10:08:16.856Z,13.25
2023-01-25T10:10:43.928Z,12.52
2023-01-25T10:13:18.882Z,13.55
2023-01-25T10:15:50.709Z,14.30
2023-01-25T10:18:21.748Z,14.30
2023-01-25T10:20:54.933Z,13.88
2023-01-25T10:23:24.090Z,12.95
2023-01-25T10:26:00.384Z,13.02
2023-01-25T10:28:34.504Z,12.48
2023-01-25T10:31:00.805Z,12.52
2023-01-25T10:33:28.304Z,11.13
2023-01-25T10:35:55.347Z,12.23
2023-01-25T10:38:25.865Z,13.48
2023-01-25T10:40:55.567Z,13.65
2023-01-25T10:43:22.318Z,12.73
2023-01-25T10:45:50.094Z,12.05
2023-01-25T10:48:20.960Z,12.30
2023-01-25T10:50:48.442Z,12.57
2023-01-25T10:53:26.672Z,12.52
2023-01-25T10:56:02.002Z,12.85
2023-01-25T10:58:35.919Z,13.77
2023-01-25T11:01:04.073Z,14.20
2023-01-25T11:03:38.081Z,13.20
2023-01-25T11:06:05.075Z,12.68
2023-01-25T11:08:31.310Z,15.10
2023-01-25T11:10:58.607Z,14.18
2023-01-25T11:13:26.267Z,14.80
2023-01-25T11:15:54.148Z,13.75
2023-01-25T11:18:22.329Z,12.88
2023-01-25T11:21:02.547Z,14.25
2023-01-25T11:23:28.911Z,13.98
2023-01-25T11:26:10.421Z,13.57
2023-01-25T11:28:36.876Z,15.02
2023-01-25T11:31:03.197Z,13.80
2023-01-25T11:33:30.622Z,13.43
2023-01-25T11:36:05.754Z,12.93
2023-01-25T11:38:32.136Z,12.63
2023-01-25T11:41:04.174Z,13.10
2023-01-25T11:43:33.273Z,14.00
2023-01-25T11:46:07.640Z,14.05
2023-01-25T11:48:53.558Z,12.85
2023-01-25T11:51:27.282Z,14.98
2023-01-25T11:53:53.499Z,16.50
2023-01-25T11:56:40.067Z,16.30
2023-01-25T11:59:13.616Z,15.43
2023-01-25T12:02:08.423Z,15.88
2023-01-25T12:04:41.177Z,15.48
2023-01-25T12:07:13.962Z,15.60
2023-01-25T12:09:43.183Z,15.73
2023-01-25T12:12:12.515Z,15.88
2023-01-25T12:14:38.731Z,16.42
2023-01-25T12:17:16.627Z,16.77
2023-01-25T12:19:57.598Z,16.00
2023-01-25T12:22:33.444Z,16.60
2023-01-25T12:24:59.662Z,15.68
2023-01-25T12:27:33.932Z,19.40
2023-01-25T12:30:02.547Z,18.20
2023-01-25T12:32:35.738Z,17.55
2023-01-25T12:35:11.327Z,17.58
2023-01-25T12:37:39.242Z,15.68
2023-01-25T12:40:18.291Z,17.77
2023-01-25T12:42:47.435Z,16.17
2023-01-25T12:45:17.163Z,15.70
2023-01-25T12:47:53.863Z,14.40
2023-01-25T12:50:20.144Z,14.75
2023-01-25T12:52:51.653Z,13.35
2023-01-25T12:55:18.457Z,11.65
2023-01-25T13:00:26.346Z,14.50
2023-01-25T13:02:52.588Z,13.43
2023-01-25T13:05:37.794Z,12.75
2023-01-25T13:08:30.042Z,12.30
2023-01-25T13:11:21.317Z,12.25
2023-01-25T13:13:47.758Z,12.10
2023-01-25T13:16:23.054Z,13.40
2023-01-25T13:18:49.342Z,12.10
2023-01-25T13:21:34.368Z,11.95
2023-01-25T13:24:11.030Z,13.70
2023-01-25T13:26:37.951Z,13.60
2023-01-25T13:31:51.891Z,11.10
2023-01-25T13:34:42.509Z,12.32
2023-01-25T13:37:25.768Z,10.77
2023-01-25T13:39:55.424Z,12.20
2023-01-25T13:42:25.872Z,12.40
2023-01-25T13:44:54.307Z,11.10
2023-01-25T13:47:22.147Z,13.18
2023-01-25T13:49:57.519Z,13.27
2023-01-25T13:52:24.760Z,13.82
2023-01-25T13:54:53.885Z,14.27
2023-01-25T13:57:21.443Z,16.15
2023-01-25T13:59:49.543Z,11.25
2023-01-25T14:02:19.641Z,12.82
2023-01-25T14:04:46.841Z,11.80
2023-01-25T14:07:16.032Z,11.77
2023-01-25T14:09:42.971Z,11.88
2023-01-25T14:12:11.025Z,12.63
2023-01-25T14:14:37.843Z,12.10
2023-01-25T14:19:31.226Z,12.18
2023-01-25T14:22:16.410Z,11.52
2023-01-25T14:24:42.685Z,11.80
2023-01-25T14:27:13.363Z,18.67
2023-01-25T14:32:16.951Z,17.48
2023-01-25T14:34:43.188Z,14.77
2023-01-25T14:37:20.824Z,15.80
2023-01-25T14:39:47.919Z,14.98
2023-01-25T14:42:15.422Z,13.25
2023-01-25T14:44:42.015Z,13.35
2023-01-25T14:47:27.130Z,16.13
2023-01-25T14:49:53.398Z,11.57
2023-01-25T14:52:20.583Z,11.98
2023-01-25T14:54:50.006Z,13.50
2023-01-25T14:57:25.196Z,11.85
2023-01-25T14:59:53.555Z,11.90
2023-01-25T15:02:24.515Z,13.13
2023-01-25T15:04:55.421Z,14.10
2023-01-25T15:07:40.376Z,14.10
2023-01-25T15:10:18.891Z,12.30
2023-01-25T15:13:13.744Z,14.90
2023-01-25T15:15:57.796Z,17.58
2023-01-25T15:18:43.026Z,14.10
2023-01-25T15:21:10.497Z,28.55
2023-01-25T15:23:36.738Z,14.95
2023-01-25T15:26:11.641Z,14.57
2023-01-25T15:28:37.876Z,15.50
2023-01-25T15:31:04.937Z,15.35
2023-01-25T15:33:32.522Z,15.95
2023-01-25T15:35:59.014Z,16.48
2023-01-25T15:38:25.636Z,16.75
2023-01-25T15:40:52.014Z,16.98
2023-01-25T15:43:19.340Z,17.52
2023-01-25T15:45:47.403Z,16.15
2023-01-25T15:48:14.946Z,16.25
2023-01-25T15:50:41.717Z,16.77
2023-01-25T15:55:34.399Z,16.58
2023-01-25T15:58:00.799Z,16.60
2023-01-25T16:00:27.048Z,16.27
2023-01-25T16:02:53.329Z,15.93
2023-01-25T16:05:19.602Z,16.48
2023-01-25T16:07:46.085Z,17.17
2023-01-25T16:10:19.629Z,17.48
2023-01-25T16:12:45.856Z,19.85
2023-01-25T16:15:12.121Z,18.88
2023-01-25T16:17:38.403Z,16.70
2023-01-25T16:20:04.858Z,17.13
2023-01-25T16:22:31.085Z,16.50
2023-01-25T16:24:57.317Z,17.75
2023-01-25T16:27:25.617Z,18.10
2023-01-25T16:29:52.321Z,20.35
2023-01-25T16:32:18.711Z,27.83
2023-01-25T16:34:45.001Z,22.15
2023-01-25T16:37:18.380Z,16.80
2023-01-25T16:39:44.744Z,17.67
2023-01-25T16:42:11.961Z,16.75
2023-01-25T16:44:38.517Z,15.38
2023-01-25T16:47:05.218Z,27.65
2023-01-25T16:49:31.482Z,28.17
2023-01-25T16:51:57.982Z,54.70
2023-01-25T16:54:25.027Z,16.63
2023-01-25T16:56:51.819Z,16.33
2023-01-25T17:01:45.470Z,16.77
2023-01-25T17:04:12.070Z,43.92
2023-01-25T17:06:40.251Z,32.05
2023-01-25T17:09:21.458Z,36.13
2023-01-25T17:11:48.706Z,44.33
2023-01-25T17:14:16.323Z,25.65
2023-01-25T17:16:42.821Z,22.23
2023-01-25T17:19:12.681Z,20.52
2023-01-25T17:21:38.923Z,20.27
2023-01-25T17:24:05.375Z,27.55
2023-01-25T17:26:32.240Z,23.00
2023-01-25T17:31:26.592Z,18.95
2023-01-25T17:33:53.350Z,21.33
2023-01-25T17:36:19.872Z,22.85
2023-01-25T17:38:46.208Z,22.80
2023-01-25T17:41:13.355Z,22.00
2023-01-25T17:43:40.004Z,23.40
2023-01-25T17:46:13.351Z,26.35
2023-01-25T17:48:39.986Z,22.65
2023-01-25T17:51:06.422Z,21.77
2023-01-25T17:53:32.719Z,20.08
2023-01-25T17:56:03.176Z,20.33
2023-01-25T17:58:30.237Z,19.73
2023-01-25T18:01:05.144Z,20.13
2023-01-25T18:03:38.981Z,23.95
2023-01-25T18:06:09.016Z,23.40
2023-01-25T18:08:40.208Z,22.95
2023-01-25T18:11:10.563Z,19.92
2023-01-25T18:13:40.489Z,19.25
2023-01-25T18:16:07.673Z,16.98
2023-01-25T18:18:33.980Z,18.60
2023-01-25T18:21:11.226Z,16.13
2023-01-25T18:23:38.272Z,17.00
2023-01-25T18:26:06.409Z,15.27
2023-01-25T18:28:32.886Z,20.10
2023-01-25T18:31:00.418Z,20.42
2023-01-25T18:33:26.726Z,15.45
2023-01-25T18:35:53.894Z,27.65
2023-01-25T18:38:20.174Z,21.23
2023-01-25T18:40:46.878Z,19.00
2023-01-25T18:43:16.982Z,18.60
2023-01-25T18:45:43.547Z,18.77
2023-01-25T18:48:13.379Z,17.95
2023-01-25T18:50:40.662Z,15.98
2023-01-25T18:53:08.674Z,18.58
2023-01-25T18:55:35.540Z,18.90
2023-01-25T19:00:31.461Z,17.20
2023-01-25T19:02:57.873Z,19.40
2023-01-25T19:05:24.265Z,17.13
2023-01-25T19:07:50.499Z,17.02
2023-01-25T19:10:17.371Z,16.00
2023-01-25T19:15:10.294Z,16.25
2023-01-25T19:17:36.740Z,17.42
2023-01-25T19:20:03.019Z,17.23
2023-01-25T19:22:29.306Z,16.25
2023-01-25T19:24:55.593Z,16.35
2023-01-25T19:27:22.004Z,17.10
2023-01-25T19:29:49.594Z,16.95
2023-01-25T19:32:15.891Z,17.15
2023-01-25T19:34:42.131Z,16.88
2023-01-25T19:37:08.357Z,17.83
2023-01-25T19:39:34.684Z,19.75
2023-01-25T19:42:00.970Z,19.90
2023-01-25T19:44:27.236Z,19.73
2023-01-25T19:46:53.845Z,22.00
2023-01-25T19:49:22.142Z,22.15
2023-01-25T19:51:52.830Z,18.83
2023-01-25T19:54:19.324Z,19.77
2023-01-25T19:56:46.964Z,19.80
2023-01-25T19:59:17.201Z,19.77
2023-01-25T20:01:46.571Z,16.77
2023-01-25T20:04:17.431Z,19.52
2023-01-25T20:06:43.747Z,16.70
2023-01-25T20:09:13.891Z,18.88
2023-01-25T20:11:40.845Z,17.30
2023-01-25T20:14:07.573Z,21.00
2023-01-25T20:16:34.541Z,22.10
2023-01-25T20:19:01.896Z,40.42
2023-01-25T20:21:28.853Z,31.23
2023-01-25T20:23:58.026Z,26.25
2023-01-25T20:26:29.405Z,22.10
2023-01-25T20:28:57.257Z,31.52
2023-01-25T20:31:25.154Z,40.97
2023-01-25T20:33:52.847Z,32.50
2023-01-25T20:36:19.336Z,23.20
2023-01-25T20:38:45.917Z,22.60
2023-01-25T20:41:14.113Z,23.70
2023-01-25T20:43:45.118Z,22.58
2023-01-25T20:46:11.357Z,23.58
2023-01-25T20:48:37.714Z,24.60
2023-01-25T20:51:04.877Z,23.98
2023-01-25T20:53:31.672Z,21.73
2023-01-25T20:58:24.311Z,19.92
2023-01-25T21:00:50.563Z,20.23
2023-01-25T21:03:16.847Z,21.58
2023-01-25T21:05:53.282Z,21.90
2023-01-25T21:08:19.825Z,22.77
2023-01-25T21:10:47.144Z,22.40
2023-01-25T21:13:13.387Z,22.27
2023-01-25T21:15:39.662Z,21.80
2023-01-25T21:18:05.892Z,22.95
2023-01-25T21:20:32.119Z,23.35
2023-01-25T21:22:58.341Z,24.10
2023-01-25T21:25:24.564Z,24.52
2023-01-25T21:27:50.817Z,24.45
2023-01-25T21:30:17.260Z,23.15
2023-01-25T21:32:43.583Z,22.63
2023-01-25T21:35:10.237Z,21.10
2023-01-25T21:40:02.835Z,19.67
2023-01-25T21:42:30.924Z,19.90
2023-01-25T21:45:17.165Z,21.52
2023-01-25T21:47:43.384Z,23.88
2023-01-25T21:50:28.584Z,23.27
2023-01-25T21:52:54.798Z,19.88
2023-01-25T21:55:21.030Z,20.65
2023-01-25T21:57:47.365Z,22.80
2023-01-25T22:00:15.927Z,22.60
2023-01-25T22:02:42.750Z,21.83
2023-01-25T22:07:35.159Z,22.30
2023-01-25T22:10:01.429Z,23.73
2023-01-25T22:12:27.701Z,19.25
2023-01-25T22:14:53.928Z,22.98
2023-01-25T22:17:22.438Z,24.52
2023-01-25T22:19:48.685Z,23.25
2023-01-25T22:22:14.934Z,23.90
2023-01-25T22:24:41.175Z,25.70
2023-01-25T22:27:13.181Z,24.92
2023-01-25T22:29:39.402Z,26.52
2023-01-25T22:32:05.667Z,24.77
2023-01-25T22:34:31.890Z,26.13
2023-01-25T22:36:58.159Z,26.27
2023-01-25T22:39:24.407Z,24.42
2023-01-25T22:41:50.661Z,25.95
2023-01-25T22:44:17.074Z,25.83
2023-01-25T22:46:43.303Z,26.02
2023-01-25T22:49:09.627Z,24.30
2023-01-25T22:51:35.888Z,24.73
2023-01-25T22:54:02.125Z,25.80
2023-01-25T22:56:31.585Z,25.67
2023-01-25T22:58:58.176Z,24.95
2023-01-25T23:01:25.758Z,26.05
2023-01-25T23:03:52.448Z,24.42
2023-01-25T23:06:22.844Z,23.30
2023-01-25T23:08:49.582Z,25.48
2023-01-25T23:14:02.713Z,23.40
2023-01-25T23:16:29.246Z,24.27
2023-01-25T23:18:55.701Z,25.13
2023-01-25T23:21:23.110Z,24.80
2023-01-25T23:23:49.689Z,25.20
2023-01-25T23:26:16.305Z,24.67
2023-01-25T23:28:42.589Z,24.10
2023-01-25T23:31:21.307Z,24.55
2023-01-25T23:33:55.369Z,25.70
2023-01-25T23:36:22.882Z,23.48
2023-01-25T23:38:49.680Z,24.88
2023-01-25T23:43:43.294Z,23.00
2023-01-25T23:46:10.046Z,23.63
2023-01-25T23:51:02.628Z,22.75
2023-01-25T23:53:30.039Z,24.40
2023-01-25T23:55:57.703Z,26.25
2023-01-25T23:58:24.624Z,24.90
